createdAt,value
2018-09-30T00:01:39.515Z,10.30
2018-09-30T00:04:07.679Z,10.30
2018-09-30T00:06:35.830Z,10.30
2018-09-30T00:09:05.930Z,10.30
2018-09-30T00:11:34.103Z,10.20
2018-09-30T00:14:02.264Z,10.20
2018-09-30T00:16:30.410Z,10.20
2018-09-30T00:18:58.605Z,10.20
2018-09-30T00:21:26.818Z,10.20
2018-09-30T00:24:00.498Z,10.20
2018-09-30T00:27:35.739Z,10.20
2018-09-30T00:30:03.890Z,10.20
2018-09-30T00:32:32.035Z,10.20
2018-09-30T00:35:00.188Z,10.10
2018-09-30T00:37:28.339Z,10.10
2018-09-30T00:39:56.495Z,10.10
2018-09-30T00:42:24.651Z,10.10
2018-09-30T00:44:52.791Z,10.10
2018-09-30T00:47:20.972Z,10.10
2018-09-30T00:49:49.114Z,10.10
2018-09-30T00:52:17.478Z,10.10
2018-09-30T00:54:45.631Z,10.00
2018-09-30T00:57:13.778Z,10.00
2018-09-30T00:59:41.926Z,10.10
2018-09-30T01:02:10.083Z,10.00
2018-09-30T01:04:38.238Z,10.00
2018-09-30T01:07:06.735Z,10.00
2018-09-30T01:09:34.903Z,10.00
2018-09-30T01:12:03.078Z,10.00
2018-09-30T01:14:31.243Z,10.00
2018-09-30T01:16:59.403Z,10.00
2018-09-30T01:19:27.570Z,10.00
2018-09-30T01:21:55.752Z,10.10
2018-09-30T01:24:23.918Z,10.10
2018-09-30T01:26:52.100Z,10.10
2018-09-30T01:29:20.271Z,10.20
2018-09-30T01:31:48.438Z,10.20
2018-09-30T01:34:16.614Z,10.20
2018-09-30T01:36:44.757Z,10.20
2018-09-30T01:39:12.911Z,10.30
2018-09-30T01:41:41.081Z,10.30
2018-09-30T01:44:09.255Z,10.30
2018-09-30T01:46:37.451Z,10.40
2018-09-30T01:49:05.645Z,10.40
2018-09-30T01:51:33.812Z,10.40
2018-09-30T01:54:01.993Z,10.40
2018-09-30T01:56:30.212Z,10.40
2018-09-30T01:58:58.415Z,10.30
2018-09-30T02:01:26.578Z,10.30
2018-09-30T02:03:54.782Z,10.30
2018-09-30T02:06:23.037Z,10.30
2018-09-30T02:08:51.212Z,10.20
2018-09-30T02:11:19.377Z,10.20
2018-09-30T02:13:47.559Z,10.20
2018-09-30T02:16:15.781Z,10.20
2018-09-30T02:18:43.946Z,10.10
2018-09-30T02:21:12.115Z,10.10
2018-09-30T02:23:40.279Z,10.00
2018-09-30T02:26:08.435Z,10.00
2018-09-30T02:28:36.588Z,10.00
2018-09-30T02:31:04.758Z,9.90
2018-09-30T02:33:32.939Z,9.90
2018-09-30T02:36:01.128Z,9.80
2018-09-30T02:38:29.287Z,9.80
2018-09-30T02:40:57.455Z,9.80
2018-09-30T02:43:25.631Z,9.70
2018-09-30T02:45:53.819Z,9.70
2018-09-30T02:48:21.990Z,9.70
2018-09-30T02:50:50.174Z,9.60
2018-09-30T02:53:18.345Z,9.60
2018-09-30T02:55:46.503Z,9.60
2018-09-30T02:58:14.688Z,9.50
2018-09-30T03:00:42.851Z,9.50
2018-09-30T03:03:11.024Z,9.50
2018-09-30T03:05:39.206Z,9.50
2018-09-30T03:09:14.445Z,9.50
2018-09-30T03:11:42.713Z,9.40
2018-09-30T03:14:11.695Z,9.40
2018-09-30T03:16:39.973Z,9.40
2018-09-30T03:19:08.118Z,9.30
2018-09-30T03:21:36.318Z,9.30
2018-09-30T03:24:04.504Z,9.30
2018-09-30T03:26:32.996Z,9.30
2018-09-30T03:29:01.220Z,9.30
2018-09-30T03:31:29.382Z,9.20
2018-09-30T03:33:57.555Z,9.20
2018-09-30T03:36:25.835Z,9.20
2018-09-30T03:38:53.986Z,9.20
2018-09-30T03:41:22.169Z,9.20
2018-09-30T03:43:50.318Z,9.20
2018-09-30T03:46:18.474Z,9.20
2018-09-30T03:48:46.636Z,9.10
2018-09-30T03:51:14.787Z,9.20
2018-09-30T03:53:42.942Z,9.10
2018-09-30T03:56:11.078Z,9.10
2018-09-30T03:58:39.229Z,9.10
2018-09-30T04:01:07.437Z,9.10
2018-09-30T04:03:35.602Z,9.10
2018-09-30T04:06:03.810Z,9.10
2018-09-30T04:08:31.999Z,9.00
2018-09-30T04:11:00.163Z,9.00
2018-09-30T04:13:28.336Z,9.00
2018-09-30T04:15:56.575Z,9.00
2018-09-30T04:18:24.930Z,9.00
2018-09-30T04:20:53.084Z,9.00
2018-09-30T04:23:21.287Z,9.00
2018-09-30T04:25:49.446Z,9.00
2018-09-30T04:28:17.602Z,9.00
2018-09-30T04:30:45.771Z,9.00
2018-09-30T04:33:14.000Z,9.00
2018-09-30T04:35:42.170Z,9.00
2018-09-30T04:38:10.350Z,8.90
2018-09-30T04:40:38.533Z,8.90
2018-09-30T04:43:06.782Z,8.90
2018-09-30T04:45:34.950Z,8.90
2018-09-30T04:48:03.127Z,8.90
2018-09-30T04:50:31.302Z,8.90
2018-09-30T04:52:59.478Z,8.90
2018-09-30T04:55:27.663Z,8.90
2018-09-30T04:57:55.821Z,8.90
2018-09-30T05:00:23.982Z,8.90
2018-09-30T05:02:52.131Z,8.90
2018-09-30T05:05:20.302Z,8.90
2018-09-30T05:07:48.451Z,8.90
2018-09-30T05:10:16.614Z,8.80
2018-09-30T05:12:44.776Z,8.80
2018-09-30T05:15:12.982Z,8.80
2018-09-30T05:17:41.234Z,8.80
2018-09-30T05:20:09.378Z,8.80
2018-09-30T05:22:37.623Z,8.80
2018-09-30T05:25:05.770Z,8.70
2018-09-30T05:27:33.939Z,8.70
2018-09-30T05:30:02.148Z,8.70
2018-09-30T05:32:30.359Z,8.70
2018-09-30T05:34:58.540Z,8.70
2018-09-30T05:37:26.688Z,8.60
2018-09-30T05:39:54.859Z,8.60
2018-09-30T05:42:23.025Z,8.70
2018-09-30T05:44:51.182Z,8.70
2018-09-30T05:47:19.362Z,8.70
2018-09-30T05:49:47.571Z,8.70
2018-09-30T05:52:15.742Z,8.70
2018-09-30T05:54:43.883Z,8.70
2018-09-30T05:57:12.038Z,8.70
2018-09-30T05:59:40.187Z,8.70
2018-09-30T06:02:08.334Z,8.70
2018-09-30T06:04:37.274Z,8.80
2018-09-30T06:07:05.459Z,8.80
2018-09-30T06:09:33.667Z,8.80
2018-09-30T06:12:01.783Z,8.90
2018-09-30T06:14:30.162Z,8.90
2018-09-30T06:16:58.298Z,9.00
2018-09-30T06:19:26.463Z,9.00
2018-09-30T06:21:54.612Z,9.00
2018-09-30T06:24:22.794Z,9.10
2018-09-30T06:26:50.958Z,9.10
2018-09-30T06:29:19.091Z,9.10
2018-09-30T06:31:47.347Z,9.10
2018-09-30T06:34:15.394Z,9.10
2018-09-30T06:36:43.578Z,9.20
2018-09-30T06:39:11.721Z,9.20
2018-09-30T06:41:39.864Z,9.30
2018-09-30T06:44:08.386Z,9.30
2018-09-30T06:46:36.578Z,9.40
2018-09-30T06:49:04.746Z,9.50
2018-09-30T06:51:32.915Z,9.50
2018-09-30T06:54:01.077Z,9.60
2018-09-30T06:56:29.212Z,9.60
2018-09-30T06:58:57.379Z,9.70
2018-09-30T07:01:25.526Z,9.70
2018-09-30T07:03:53.702Z,9.80
2018-09-30T07:06:21.877Z,9.90
2018-09-30T07:08:50.046Z,9.90
2018-09-30T07:11:18.203Z,9.90
2018-09-30T07:13:46.446Z,10.00
2018-09-30T07:16:14.599Z,10.00
2018-09-30T07:18:42.759Z,10.10
2018-09-30T07:21:10.934Z,10.10
2018-09-30T07:23:39.087Z,10.20
2018-09-30T07:26:07.574Z,10.30
2018-09-30T07:28:35.741Z,10.30
2018-09-30T07:31:03.895Z,10.40
2018-09-30T07:33:32.054Z,10.40
2018-09-30T07:36:00.187Z,10.50
2018-09-30T07:38:28.340Z,10.60
2018-09-30T07:40:56.648Z,10.70
2018-09-30T07:43:24.811Z,10.80
2018-09-30T07:45:52.974Z,10.90
2018-09-30T07:48:21.138Z,11.00
2018-09-30T07:50:49.306Z,11.10
2018-09-30T07:53:17.475Z,11.20
2018-09-30T07:55:45.638Z,11.20
2018-09-30T07:58:13.800Z,11.30
2018-09-30T08:00:42.159Z,11.40
2018-09-30T08:03:10.395Z,11.50
2018-09-30T08:05:38.554Z,11.60
2018-09-30T08:08:06.774Z,11.70
2018-09-30T08:10:34.966Z,11.70
2018-09-30T08:13:03.131Z,11.80
2018-09-30T08:15:31.309Z,11.90
2018-09-30T08:17:59.470Z,12.00
2018-09-30T08:20:27.640Z,12.10
2018-09-30T08:22:55.858Z,12.10
2018-09-30T08:25:24.235Z,12.20
2018-09-30T08:27:52.626Z,12.30
2018-09-30T08:30:20.793Z,12.30
2018-09-30T08:32:49.038Z,12.40
2018-09-30T08:35:17.419Z,12.50
2018-09-30T08:37:51.070Z,12.60
2018-09-30T08:40:24.505Z,12.70
2018-09-30T08:42:52.699Z,12.80
2018-09-30T08:45:20.917Z,12.90
2018-09-30T08:47:49.146Z,13.00
2018-09-30T08:50:17.322Z,13.10
2018-09-30T08:52:45.569Z,13.20
2018-09-30T08:55:13.775Z,13.30
2018-09-30T08:57:41.971Z,13.40
2018-09-30T09:00:10.158Z,13.50
2018-09-30T09:02:38.495Z,13.60
2018-09-30T09:05:06.654Z,13.70
2018-09-30T09:07:34.862Z,13.80
2018-09-30T09:10:03.033Z,13.90
2018-09-30T09:12:31.337Z,14.00
2018-09-30T09:14:59.620Z,14.10
2018-09-30T09:17:27.986Z,14.20
2018-09-30T09:19:56.267Z,14.30
2018-09-30T09:22:24.560Z,14.40
2018-09-30T09:24:52.666Z,14.50
2018-09-30T09:27:21.019Z,14.60
2018-09-30T09:29:49.187Z,14.70
2018-09-30T09:32:17.427Z,14.80
2018-09-30T09:34:46.073Z,14.90
2018-09-30T09:37:14.310Z,15.00
2018-09-30T09:39:42.530Z,15.10
2018-09-30T09:42:10.682Z,15.20
2018-09-30T09:44:38.855Z,15.30
2018-09-30T09:47:07.206Z,15.40
2018-09-30T09:49:43.785Z,15.50
2018-09-30T09:52:12.728Z,15.60
2018-09-30T09:54:41.047Z,15.70
2018-09-30T09:57:09.410Z,15.80
2018-09-30T09:59:37.766Z,15.90
2018-09-30T10:02:05.985Z,16.00
2018-09-30T10:04:34.178Z,16.10
2018-09-30T10:07:02.459Z,16.20
2018-09-30T10:09:30.614Z,16.30
2018-09-30T10:11:58.790Z,16.40
2018-09-30T10:14:27.006Z,16.50
2018-09-30T10:16:55.195Z,16.60
2018-09-30T10:19:23.392Z,16.80
2018-09-30T10:21:51.564Z,16.90
2018-09-30T10:24:20.062Z,17.10
2018-09-30T10:26:48.294Z,17.10
2018-09-30T10:29:16.776Z,17.20
2018-09-30T10:31:44.970Z,17.30
2018-09-30T10:34:13.146Z,17.40
2018-09-30T10:36:41.336Z,17.50
2018-09-30T10:39:10.531Z,17.50
2018-09-30T10:41:38.843Z,17.60
2018-09-30T10:44:07.191Z,17.70
2018-09-30T10:46:35.451Z,17.80
2018-09-30T10:49:03.638Z,17.80
2018-09-30T10:51:31.998Z,17.90
2018-09-30T10:54:00.514Z,18.00
2018-09-30T10:56:28.668Z,18.00
2018-09-30T10:58:56.898Z,18.10
2018-09-30T11:01:25.154Z,18.10
2018-09-30T11:03:53.296Z,18.20
2018-09-30T11:06:21.635Z,18.20
2018-09-30T11:08:49.858Z,18.30
2018-09-30T11:11:18.208Z,18.30
2018-09-30T11:13:46.379Z,18.40
2018-09-30T11:16:14.612Z,18.50
2018-09-30T11:18:42.775Z,18.50
2018-09-30T11:21:11.011Z,18.50
2018-09-30T11:23:39.190Z,18.50
2018-09-30T11:26:07.533Z,18.60
2018-09-30T11:28:35.841Z,18.60
2018-09-30T11:31:04.007Z,18.60
2018-09-30T11:33:32.231Z,18.50
2018-09-30T11:36:00.498Z,18.50
2018-09-30T11:38:28.670Z,18.40
2018-09-30T11:40:56.876Z,18.40
2018-09-30T11:43:25.043Z,18.40
2018-09-30T11:45:53.383Z,18.40
2018-09-30T11:48:21.542Z,18.50
2018-09-30T11:50:49.718Z,18.50
2018-09-30T11:53:17.910Z,18.50
2018-09-30T11:55:46.158Z,18.50
2018-09-30T11:58:14.350Z,18.50
2018-09-30T12:00:42.541Z,18.50
2018-09-30T12:03:10.706Z,18.40
2018-09-30T12:05:38.882Z,18.50
2018-09-30T12:08:07.067Z,18.40
2018-09-30T12:10:35.210Z,18.50
2018-09-30T12:13:03.385Z,18.50
2018-09-30T12:15:31.546Z,18.40
2018-09-30T12:17:59.708Z,18.40
2018-09-30T12:20:27.879Z,18.50
2018-09-30T12:22:56.027Z,18.50
2018-09-30T12:25:24.332Z,18.50
2018-09-30T12:27:52.514Z,18.50
2018-09-30T12:30:20.686Z,18.50
2018-09-30T12:32:48.895Z,18.50
2018-09-30T12:35:17.038Z,18.50
2018-09-30T12:37:45.211Z,18.50
2018-09-30T12:40:13.358Z,18.50
2018-09-30T12:42:41.526Z,18.50
2018-09-30T12:45:09.700Z,18.50
2018-09-30T12:47:37.838Z,18.60
2018-09-30T12:50:05.995Z,18.60
2018-09-30T12:52:34.147Z,18.70
2018-09-30T12:55:02.355Z,18.70
2018-09-30T12:57:30.591Z,18.80
2018-09-30T12:59:58.747Z,18.80
2018-09-30T13:02:26.900Z,18.80
2018-09-30T13:04:55.046Z,18.90
2018-09-30T13:07:23.214Z,18.90
2018-09-30T13:09:51.409Z,18.90
2018-09-30T13:12:19.568Z,18.90
2018-09-30T13:14:47.735Z,18.90
2018-09-30T13:17:15.902Z,18.90
2018-09-30T13:19:44.058Z,18.90
2018-09-30T13:22:12.251Z,18.90
2018-09-30T13:24:40.419Z,19.00
2018-09-30T13:27:08.582Z,19.00
2018-09-30T13:29:36.971Z,19.00
2018-09-30T13:32:05.145Z,19.00
2018-09-30T13:34:33.303Z,19.00
2018-09-30T13:37:01.484Z,19.00
2018-09-30T13:39:29.683Z,19.00
2018-09-30T13:41:57.897Z,19.00
2018-09-30T13:44:26.095Z,19.00
2018-09-30T13:46:54.369Z,19.00
2018-09-30T13:49:22.584Z,19.00
2018-09-30T13:51:50.837Z,19.00
2018-09-30T13:54:19.031Z,19.00
2018-09-30T13:56:47.226Z,19.10
2018-09-30T13:59:15.374Z,19.00
2018-09-30T14:01:43.559Z,19.00
2018-09-30T14:04:11.824Z,19.00
2018-09-30T14:06:40.072Z,18.90
2018-09-30T14:09:09.499Z,18.90
2018-09-30T14:11:37.650Z,18.80
2018-09-30T14:14:05.802Z,18.80
2018-09-30T14:16:34.032Z,18.70
2018-09-30T14:19:02.195Z,18.70
2018-09-30T14:21:30.411Z,18.70
2018-09-30T14:23:58.559Z,18.70
2018-09-30T14:26:26.718Z,18.60
2018-09-30T14:28:54.940Z,18.60
2018-09-30T14:31:23.163Z,18.60
2018-09-30T14:33:51.325Z,18.60
2018-09-30T14:36:19.482Z,18.60
2018-09-30T14:38:47.658Z,18.60
2018-09-30T14:41:15.876Z,18.60
2018-09-30T14:43:44.040Z,18.50
2018-09-30T14:46:12.270Z,18.50
2018-09-30T14:48:40.524Z,18.50
2018-09-30T14:51:08.603Z,18.50
2018-09-30T14:53:36.789Z,18.50
2018-09-30T14:56:04.946Z,18.50
2018-09-30T14:58:33.226Z,18.40
2018-09-30T15:01:01.413Z,18.40
2018-09-30T15:03:29.627Z,18.40
2018-09-30T15:05:57.888Z,18.30
2018-09-30T15:08:26.026Z,18.30
2018-09-30T15:10:54.230Z,18.30
2018-09-30T15:13:22.429Z,18.30
2018-09-30T15:15:50.592Z,18.30
2018-09-30T15:18:18.759Z,18.20
2018-09-30T15:20:46.939Z,18.20
2018-09-30T15:23:15.115Z,18.20
2018-09-30T15:25:43.316Z,18.10
2018-09-30T15:28:11.470Z,18.10
2018-09-30T15:30:39.643Z,18.00
2018-09-30T15:33:07.835Z,18.00
2018-09-30T15:35:35.994Z,18.00
2018-09-30T15:38:04.189Z,18.00
2018-09-30T15:40:32.355Z,17.90
2018-09-30T15:43:00.627Z,17.90
2018-09-30T15:45:28.748Z,17.80
2018-09-30T15:47:56.904Z,17.80
2018-09-30T15:50:25.040Z,17.80
2018-09-30T15:52:53.213Z,17.80
2018-09-30T15:55:21.470Z,17.70
2018-09-30T15:57:49.662Z,17.70
2018-09-30T16:00:17.850Z,17.70
2018-09-30T16:02:46.016Z,17.70
2018-09-30T16:05:14.176Z,17.60
2018-09-30T16:07:42.451Z,17.60
2018-09-30T16:10:10.611Z,17.60
2018-09-30T16:12:38.782Z,17.60
2018-09-30T16:15:07.117Z,17.50
2018-09-30T16:17:35.264Z,17.50
2018-09-30T16:20:03.414Z,17.50
2018-09-30T16:22:31.576Z,17.50
2018-09-30T16:24:59.734Z,17.50
2018-09-30T16:27:27.914Z,17.40
2018-09-30T16:29:56.084Z,17.40
2018-09-30T16:32:24.262Z,17.40
2018-09-30T16:34:52.434Z,17.40
2018-09-30T16:37:20.582Z,17.40
2018-09-30T16:39:48.747Z,17.30
2018-09-30T16:42:16.966Z,17.30
2018-09-30T16:44:45.144Z,17.30
2018-09-30T16:47:13.478Z,17.20
2018-09-30T16:49:41.646Z,17.30
2018-09-30T16:52:09.790Z,17.20
2018-09-30T16:54:37.959Z,17.20
2018-09-30T16:57:06.138Z,17.10
2018-09-30T16:59:35.265Z,17.10
2018-09-30T17:02:03.426Z,17.10
2018-09-30T17:04:31.587Z,17.00
2018-09-30T17:06:59.829Z,17.00
2018-09-30T17:09:28.073Z,17.00
2018-09-30T17:11:56.226Z,16.90
2018-09-30T17:14:24.375Z,16.90
2018-09-30T17:16:52.556Z,16.90
2018-09-30T17:19:20.710Z,16.90
2018-09-30T17:21:48.951Z,16.90
2018-09-30T17:24:17.111Z,16.80
2018-09-30T17:26:45.291Z,16.80
2018-09-30T17:29:13.458Z,16.80
2018-09-30T17:31:41.891Z,16.80
2018-09-30T17:34:10.163Z,16.80
2018-09-30T17:36:38.429Z,16.80
2018-09-30T17:39:07.865Z,16.80
2018-09-30T17:41:36.131Z,16.80
2018-09-30T17:44:04.399Z,16.80
2018-09-30T17:46:32.522Z,16.70
2018-09-30T17:49:00.774Z,16.80
2018-09-30T17:51:28.999Z,16.70
2018-09-30T17:53:57.164Z,16.70
2018-09-30T17:56:25.415Z,16.70
2018-09-30T17:58:53.591Z,16.70
2018-09-30T18:01:21.743Z,16.70
2018-09-30T18:03:49.902Z,16.70
2018-09-30T18:06:18.079Z,16.70
2018-09-30T18:08:46.235Z,16.70
2018-09-30T18:11:14.391Z,16.60
2018-09-30T18:13:42.671Z,16.60
2018-09-30T18:16:10.880Z,16.60
2018-09-30T18:18:39.044Z,16.60
2018-09-30T18:21:07.278Z,16.60
2018-09-30T18:23:35.521Z,16.60
2018-09-30T18:26:03.708Z,16.50
2018-09-30T18:28:31.864Z,16.50
2018-09-30T18:31:00.019Z,16.50
2018-09-30T18:33:31.270Z,16.50
2018-09-30T18:35:59.429Z,16.40
2018-09-30T18:38:27.670Z,16.40
2018-09-30T18:40:55.852Z,16.40
2018-09-30T18:43:24.088Z,16.40
2018-09-30T18:45:52.661Z,16.40
2018-09-30T18:48:20.824Z,16.30
2018-09-30T18:50:48.974Z,16.40
2018-09-30T18:53:17.194Z,16.40
2018-09-30T18:55:45.379Z,16.40
2018-09-30T18:58:13.527Z,16.30
2018-09-30T19:00:41.695Z,16.30
2018-09-30T19:03:10.044Z,16.30
2018-09-30T19:05:38.269Z,16.30
2018-09-30T19:08:06.574Z,16.30
2018-09-30T19:10:34.755Z,16.30
2018-09-30T19:13:02.922Z,16.30
2018-09-30T19:15:31.087Z,16.30
2018-09-30T19:17:59.241Z,16.20
2018-09-30T19:20:27.438Z,16.30
2018-09-30T19:22:55.712Z,16.20
2018-09-30T19:25:23.890Z,16.20
2018-09-30T19:27:52.098Z,16.20
2018-09-30T19:30:20.304Z,16.20
2018-09-30T19:32:48.495Z,16.20
2018-09-30T19:35:16.765Z,16.10
2018-09-30T19:37:44.906Z,16.10
2018-09-30T19:40:13.072Z,16.10
2018-09-30T19:42:41.251Z,16.10
2018-09-30T19:45:09.478Z,16.10
2018-09-30T19:47:37.655Z,16.10
2018-09-30T19:50:05.865Z,16.10
2018-09-30T19:52:34.167Z,16.10
2018-09-30T19:55:02.336Z,16.00
2018-09-30T19:57:30.502Z,16.00
2018-09-30T19:59:58.710Z,16.00
2018-09-30T20:02:27.054Z,16.00
2018-09-30T20:04:55.236Z,16.00
2018-09-30T20:07:23.435Z,16.00
2018-09-30T20:09:51.613Z,16.00
2018-09-30T20:12:19.882Z,16.00
2018-09-30T20:14:50.492Z,16.00
2018-09-30T20:17:18.832Z,15.90
2018-09-30T20:19:47.004Z,16.00
2018-09-30T20:22:15.245Z,16.00
2018-09-30T20:24:43.430Z,16.00
2018-09-30T20:27:11.702Z,16.00
2018-09-30T20:29:39.872Z,16.00
2018-09-30T20:32:08.041Z,16.00
2018-09-30T20:34:36.253Z,16.00
2018-09-30T20:37:04.495Z,16.00
2018-09-30T20:39:32.669Z,15.90
2018-09-30T20:42:00.846Z,16.00
2018-09-30T20:44:29.678Z,15.90
2018-09-30T20:46:58.162Z,15.90
2018-09-30T20:49:26.367Z,15.90
2018-09-30T20:51:54.580Z,15.90
2018-09-30T20:54:22.813Z,15.90
2018-09-30T20:56:51.006Z,15.80
2018-09-30T20:59:19.245Z,15.80
2018-09-30T21:01:47.414Z,15.80
2018-09-30T21:04:15.606Z,15.80
2018-09-30T21:06:44.669Z,15.80
2018-09-30T21:09:15.257Z,15.70
2018-09-30T21:11:43.513Z,15.70
2018-09-30T21:14:11.754Z,15.70
2018-09-30T21:16:39.924Z,15.70
2018-09-30T21:19:08.106Z,15.70
2018-09-30T21:21:36.272Z,15.70
2018-09-30T21:24:04.450Z,15.70
2018-09-30T21:26:32.611Z,15.60
2018-09-30T21:29:00.790Z,15.60
2018-09-30T21:31:28.955Z,15.60
2018-09-30T21:33:57.300Z,15.60
2018-09-30T21:36:25.448Z,15.60
2018-09-30T21:38:53.635Z,15.60
2018-09-30T21:41:21.790Z,15.60
2018-09-30T21:43:49.978Z,15.50
2018-09-30T21:46:18.153Z,15.50
2018-09-30T21:48:46.348Z,15.50
2018-09-30T21:51:14.481Z,15.40
2018-09-30T21:53:42.660Z,15.40
2018-09-30T21:56:10.907Z,15.40
2018-09-30T21:58:39.071Z,15.40
2018-09-30T22:01:07.251Z,15.30
2018-09-30T22:03:35.419Z,15.30
2018-09-30T22:06:03.619Z,15.30
2018-09-30T22:08:31.802Z,15.30
2018-09-30T22:10:59.969Z,15.20
2018-09-30T22:13:28.179Z,15.20
2018-09-30T22:15:56.348Z,15.10
2018-09-30T22:18:24.511Z,15.10
2018-09-30T22:20:52.662Z,15.10
2018-09-30T22:23:21.000Z,15.10
2018-09-30T22:25:49.164Z,15.00
2018-09-30T22:28:17.336Z,15.00
2018-09-30T22:30:45.538Z,15.00
2018-09-30T22:33:13.703Z,15.00
2018-09-30T22:35:41.855Z,14.90
2018-09-30T22:38:10.014Z,14.90
2018-09-30T22:40:38.174Z,14.90
2018-09-30T22:43:06.320Z,14.90
2018-09-30T22:45:34.470Z,14.90
2018-09-30T22:48:02.637Z,14.90
2018-09-30T22:50:30.816Z,14.90
2018-09-30T22:52:58.986Z,14.90
2018-09-30T22:55:27.332Z,14.90
2018-09-30T22:57:55.478Z,14.80
2018-09-30T23:00:23.633Z,14.80
2018-09-30T23:02:51.792Z,14.90
2018-09-30T23:05:19.931Z,14.90
2018-09-30T23:07:48.111Z,14.90
2018-09-30T23:10:16.281Z,14.90
2018-09-30T23:12:44.488Z,14.80
2018-09-30T23:15:12.656Z,14.80
2018-09-30T23:17:40.825Z,14.80
2018-09-30T23:20:14.911Z,14.80
2018-09-30T23:22:43.134Z,14.80
2018-09-30T23:25:11.431Z,14.80
2018-09-30T23:27:39.595Z,14.80
2018-09-30T23:30:07.857Z,14.80
2018-09-30T23:32:36.043Z,14.80
2018-09-30T23:35:04.245Z,14.80
2018-09-30T23:37:32.403Z,14.80
2018-09-30T23:40:00.566Z,14.80
2018-09-30T23:42:28.739Z,14.80
2018-09-30T23:44:56.918Z,14.80
2018-09-30T23:47:25.261Z,14.70
2018-09-30T23:49:53.441Z,14.70
2018-09-30T23:52:21.611Z,14.70
2018-09-30T23:54:49.811Z,14.70
2018-09-30T23:57:18.830Z,14.70
2018-09-30T23:59:47.063Z,14.70
